sensor_id;sensor_type;location;lat;lon;timestamp;P1;durP1;ratioP1;P2;durP2;ratioP2
11837;SDS011;5978;51.020;6.764;2022-10-16T00:01:04;4.17;;;3.07;;
11837;SDS011;5978;51.020;6.764;2022-10-16T00:03:36;4.30;;;2.93;;
11837;SDS011;5978;51.020;6.764;2022-10-16T00:06:02;4.87;;;2.97;;
11837;SDS011;5978;51.020;6.764;2022-10-16T00:08:28;2.90;;;2.70;;
11837;SDS011;5978;51.020;6.764;2022-10-16T00:10:58;8.77;;;3.40;;
11837;SDS011;5978;51.020;6.764;2022-10-16T00:13:29;4.93;;;2.43;;
11837;SDS011;5978;51.020;6.764;2022-10-16T00:15:56;2.50;;;2.30;;
11837;SDS011;5978;51.020;6.764;2022-10-16T00:18:23;4.50;;;2.00;;
11837;SDS011;5978;51.020;6.764;2022-10-16T00:20:49;2.70;;;1.90;;
11837;SDS011;5978;51.020;6.764;2022-10-16T00:23:15;2.03;;;1.83;;
11837;SDS011;5978;51.020;6.764;2022-10-16T00:25:40;2.30;;;2.10;;
11837;SDS011;5978;51.020;6.764;2022-10-16T00:28:06;1.97;;;1.87;;
11837;SDS011;5978;51.020;6.764;2022-10-16T00:30:32;3.30;;;2.30;;
11837;SDS011;5978;51.020;6.764;2022-10-16T00:32:57;2.43;;;2.07;;
11837;SDS011;5978;51.020;6.764;2022-10-16T00:35:23;2.40;;;2.20;;
11837;SDS011;5978;51.020;6.764;2022-10-16T00:37:49;3.03;;;2.13;;
11837;SDS011;5978;51.020;6.764;2022-10-16T00:40:14;3.90;;;1.90;;
11837;SDS011;5978;51.020;6.764;2022-10-16T00:42:40;2.47;;;2.27;;
11837;SDS011;5978;51.020;6.764;2022-10-16T00:45:24;2.30;;;2.10;;
11837;SDS011;5978;51.020;6.764;2022-10-16T00:47:49;2.90;;;2.70;;
11837;SDS011;5978;51.020;6.764;2022-10-16T00:50:27;4.73;;;2.60;;
11837;SDS011;5978;51.020;6.764;2022-10-16T00:52:55;3.27;;;2.97;;
11837;SDS011;5978;51.020;6.764;2022-10-16T00:55:22;3.80;;;3.30;;
11837;SDS011;5978;51.020;6.764;2022-10-16T00:57:50;3.20;;;3.00;;
11837;SDS011;5978;51.020;6.764;2022-10-16T01:00:19;4.20;;;3.37;;
11837;SDS011;5978;51.020;6.764;2022-10-16T01:02:56;5.37;;;3.77;;
11837;SDS011;5978;51.020;6.764;2022-10-16T01:05:35;3.60;;;3.30;;
11837;SDS011;5978;51.020;6.764;2022-10-16T01:08:13;3.40;;;3.10;;
11837;SDS011;5978;51.020;6.764;2022-10-16T01:11:04;5.10;;;3.23;;
11837;SDS011;5978;51.020;6.764;2022-10-16T01:13:48;4.00;;;3.60;;
11837;SDS011;5978;51.020;6.764;2022-10-16T01:16:29;3.47;;;3.27;;
11837;SDS011;5978;51.020;6.764;2022-10-16T01:22:13;7.10;;;3.50;;
11837;SDS011;5978;51.020;6.764;2022-10-16T01:24:40;7.30;;;4.57;;
11837;SDS011;5978;51.020;6.764;2022-10-16T01:27:28;3.93;;;3.47;;
11837;SDS011;5978;51.020;6.764;2022-10-16T01:32:47;4.13;;;3.33;;
11837;SDS011;5978;51.020;6.764;2022-10-16T01:35:21;3.80;;;3.50;;
11837;SDS011;5978;51.020;6.764;2022-10-16T01:38:00;3.60;;;3.33;;
11837;SDS011;5978;51.020;6.764;2022-10-16T01:40:32;5.00;;;4.10;;
11837;SDS011;5978;51.020;6.764;2022-10-16T01:45:40;4.13;;;3.83;;
11837;SDS011;5978;51.020;6.764;2022-10-16T01:48:07;4.60;;;3.30;;
11837;SDS011;5978;51.020;6.764;2022-10-16T01:50:37;5.07;;;3.70;;
11837;SDS011;5978;51.020;6.764;2022-10-16T01:53:05;5.47;;;3.90;;
11837;SDS011;5978;51.020;6.764;2022-10-16T01:55:35;5.23;;;4.03;;
11837;SDS011;5978;51.020;6.764;2022-10-16T02:00:54;5.53;;;4.13;;
11837;SDS011;5978;51.020;6.764;2022-10-16T02:03:22;6.20;;;4.13;;
11837;SDS011;5978;51.020;6.764;2022-10-16T02:08:18;5.30;;;4.90;;
11837;SDS011;5978;51.020;6.764;2022-10-16T02:10:44;6.50;;;4.03;;
11837;SDS011;5978;51.020;6.764;2022-10-16T02:16:12;4.77;;;4.47;;
11837;SDS011;5978;51.020;6.764;2022-10-16T02:18:39;6.60;;;4.50;;
11837;SDS011;5978;51.020;6.764;2022-10-16T02:24:06;6.57;;;4.60;;
11837;SDS011;5978;51.020;6.764;2022-10-16T02:29:40;4.27;;;3.97;;
11837;SDS011;5978;51.020;6.764;2022-10-16T02:32:13;4.60;;;4.20;;
11837;SDS011;5978;51.020;6.764;2022-10-16T02:34:42;5.00;;;4.47;;
11837;SDS011;5978;51.020;6.764;2022-10-16T02:37:09;4.13;;;3.73;;
11837;SDS011;5978;51.020;6.764;2022-10-16T02:39:36;4.30;;;3.90;;
11837;SDS011;5978;51.020;6.764;2022-10-16T02:42:03;6.23;;;3.87;;
11837;SDS011;5978;51.020;6.764;2022-10-16T02:44:28;5.23;;;3.30;;
11837;SDS011;5978;51.020;6.764;2022-10-16T02:46:54;5.10;;;3.77;;
11837;SDS011;5978;51.020;6.764;2022-10-16T02:49:20;4.73;;;3.93;;
11837;SDS011;5978;51.020;6.764;2022-10-16T02:51:46;4.50;;;4.10;;
11837;SDS011;5978;51.020;6.764;2022-10-16T02:54:11;4.67;;;4.27;;
11837;SDS011;5978;51.020;6.764;2022-10-16T02:56:38;4.50;;;4.10;;
11837;SDS011;5978;51.020;6.764;2022-10-16T02:59:03;4.40;;;4.00;;
11837;SDS011;5978;51.020;6.764;2022-10-16T03:01:29;8.43;;;4.93;;
11837;SDS011;5978;51.020;6.764;2022-10-16T03:03:55;5.27;;;4.77;;
11837;SDS011;5978;51.020;6.764;2022-10-16T03:06:20;4.80;;;4.33;;
11837;SDS011;5978;51.020;6.764;2022-10-16T03:08:46;4.57;;;4.17;;
11837;SDS011;5978;51.020;6.764;2022-10-16T03:11:12;5.07;;;4.23;;
11837;SDS011;5978;51.020;6.764;2022-10-16T03:13:56;6.50;;;4.43;;
11837;SDS011;5978;51.020;6.764;2022-10-16T03:16:24;4.00;;;3.70;;
11837;SDS011;5978;51.020;6.764;2022-10-16T03:18:50;3.70;;;3.37;;
11837;SDS011;5978;51.020;6.764;2022-10-16T03:21:16;4.37;;;3.07;;
11837;SDS011;5978;51.020;6.764;2022-10-16T03:23:42;2.70;;;2.50;;
11837;SDS011;5978;51.020;6.764;2022-10-16T03:26:07;3.20;;;2.97;;
11837;SDS011;5978;51.020;6.764;2022-10-16T03:28:33;3.10;;;2.90;;
11837;SDS011;5978;51.020;6.764;2022-10-16T03:30:58;3.23;;;3.00;;
11837;SDS011;5978;51.020;6.764;2022-10-16T03:33:24;3.00;;;2.80;;
11837;SDS011;5978;51.020;6.764;2022-10-16T03:35:53;5.13;;;2.53;;
11837;SDS011;5978;51.020;6.764;2022-10-16T03:38:19;2.10;;;1.90;;
11837;SDS011;5978;51.020;6.764;2022-10-16T03:40:46;2.70;;;2.50;;
11837;SDS011;5978;51.020;6.764;2022-10-16T03:43:12;2.73;;;2.17;;
11837;SDS011;5978;51.020;6.764;2022-10-16T03:45:37;4.73;;;2.23;;
11837;SDS011;5978;51.020;6.764;2022-10-16T03:48:03;2.27;;;1.90;;
11837;SDS011;5978;51.020;6.764;2022-10-16T03:50:29;3.93;;;2.10;;
11837;SDS011;5978;51.020;6.764;2022-10-16T03:52:55;1.70;;;1.60;;
11837;SDS011;5978;51.020;6.764;2022-10-16T03:55:20;2.43;;;2.20;;
11837;SDS011;5978;51.020;6.764;2022-10-16T03:57:46;3.33;;;1.80;;
11837;SDS011;5978;51.020;6.764;2022-10-16T04:00:12;1.70;;;1.60;;
11837;SDS011;5978;51.020;6.764;2022-10-16T04:02:38;1.90;;;1.80;;
11837;SDS011;5978;51.020;6.764;2022-10-16T04:05:04;1.97;;;1.87;;
11837;SDS011;5978;51.020;6.764;2022-10-16T04:07:30;1.70;;;1.57;;
11837;SDS011;5978;51.020;6.764;2022-10-16T04:09:56;1.80;;;1.70;;
11837;SDS011;5978;51.020;6.764;2022-10-16T04:12:23;2.23;;;2.03;;
11837;SDS011;5978;51.020;6.764;2022-10-16T04:14:49;4.93;;;2.00;;
11837;SDS011;5978;51.020;6.764;2022-10-16T04:17:15;2.07;;;1.97;;
11837;SDS011;5978;51.020;6.764;2022-10-16T04:19:40;2.50;;;1.73;;
11837;SDS011;5978;51.020;6.764;2022-10-16T04:22:06;2.20;;;2.10;;
11837;SDS011;5978;51.020;6.764;2022-10-16T04:24:32;1.70;;;1.60;;
11837;SDS011;5978;51.020;6.764;2022-10-16T04:26:57;2.30;;;1.80;;
11837;SDS011;5978;51.020;6.764;2022-10-16T04:29:23;2.03;;;1.77;;
11837;SDS011;5978;51.020;6.764;2022-10-16T04:31:48;3.00;;;1.60;;
11837;SDS011;5978;51.020;6.764;2022-10-16T04:34:14;2.70;;;1.77;;
11837;SDS011;5978;51.020;6.764;2022-10-16T04:36:40;1.30;;;1.20;;
11837;SDS011;5978;51.020;6.764;2022-10-16T04:39:05;2.07;;;1.50;;
11837;SDS011;5978;51.020;6.764;2022-10-16T04:41:31;1.77;;;1.67;;
11837;SDS011;5978;51.020;6.764;2022-10-16T04:43:57;3.40;;;1.73;;
11837;SDS011;5978;51.020;6.764;2022-10-16T04:46:22;3.97;;;1.80;;
11837;SDS011;5978;51.020;6.764;2022-10-16T04:48:48;3.77;;;1.90;;
11837;SDS011;5978;51.020;6.764;2022-10-16T04:51:13;2.10;;;2.00;;
11837;SDS011;5978;51.020;6.764;2022-10-16T04:53:39;1.80;;;1.60;;
11837;SDS011;5978;51.020;6.764;2022-10-16T04:56:05;1.63;;;1.53;;
11837;SDS011;5978;51.020;6.764;2022-10-16T04:58:30;5.87;;;2.33;;
11837;SDS011;5978;51.020;6.764;2022-10-16T05:00:56;1.40;;;1.30;;
11837;SDS011;5978;51.020;6.764;2022-10-16T05:03:22;5.63;;;2.10;;
11837;SDS011;5978;51.020;6.764;2022-10-16T05:05:47;2.03;;;1.60;;
11837;SDS011;5978;51.020;6.764;2022-10-16T05:08:13;2.10;;;2.00;;
11837;SDS011;5978;51.020;6.764;2022-10-16T05:10:40;1.90;;;1.70;;
11837;SDS011;5978;51.020;6.764;2022-10-16T05:13:07;3.30;;;2.00;;
11837;SDS011;5978;51.020;6.764;2022-10-16T05:15:42;4.27;;;1.70;;
11837;SDS011;5978;51.020;6.764;2022-10-16T05:18:25;2.13;;;1.90;;
11837;SDS011;5978;51.020;6.764;2022-10-16T05:20:51;2.80;;;2.07;;
11837;SDS011;5978;51.020;6.764;2022-10-16T05:23:17;1.90;;;1.80;;
11837;SDS011;5978;51.020;6.764;2022-10-16T05:25:42;2.43;;;2.30;;
11837;SDS011;5978;51.020;6.764;2022-10-16T05:28:08;2.63;;;2.43;;
11837;SDS011;5978;51.020;6.764;2022-10-16T05:30:33;2.60;;;2.20;;
11837;SDS011;5978;51.020;6.764;2022-10-16T05:32:59;2.57;;;2.10;;
11837;SDS011;5978;51.020;6.764;2022-10-16T05:35:25;3.03;;;1.93;;
11837;SDS011;5978;51.020;6.764;2022-10-16T05:37:50;4.07;;;2.47;;
11837;SDS011;5978;51.020;6.764;2022-10-16T05:40:17;3.30;;;3.00;;
11837;SDS011;5978;51.020;6.764;2022-10-16T05:42:43;3.63;;;2.30;;
11837;SDS011;5978;51.020;6.764;2022-10-16T05:45:09;5.93;;;2.40;;
11837;SDS011;5978;51.020;6.764;2022-10-16T05:47:36;3.10;;;2.40;;
11837;SDS011;5978;51.020;6.764;2022-10-16T05:50:02;2.80;;;2.60;;
11837;SDS011;5978;51.020;6.764;2022-10-16T05:52:29;4.10;;;2.67;;
11837;SDS011;5978;51.020;6.764;2022-10-16T05:54:55;2.93;;;2.60;;
11837;SDS011;5978;51.020;6.764;2022-10-16T05:57:20;3.07;;;2.87;;
11837;SDS011;5978;51.020;6.764;2022-10-16T05:59:46;2.80;;;2.60;;
11837;SDS011;5978;51.020;6.764;2022-10-16T06:02:12;2.70;;;2.50;;
11837;SDS011;5978;51.020;6.764;2022-10-16T06:04:38;5.80;;;3.20;;
11837;SDS011;5978;51.020;6.764;2022-10-16T06:07:04;5.40;;;2.80;;
11837;SDS011;5978;51.020;6.764;2022-10-16T06:09:30;2.37;;;2.10;;
11837;SDS011;5978;51.020;6.764;2022-10-16T06:11:55;2.80;;;2.40;;
11837;SDS011;5978;51.020;6.764;2022-10-16T06:14:21;4.50;;;2.33;;
11837;SDS011;5978;51.020;6.764;2022-10-16T06:16:47;3.00;;;2.67;;
11837;SDS011;5978;51.020;6.764;2022-10-16T06:19:12;4.17;;;2.77;;
11837;SDS011;5978;51.020;6.764;2022-10-16T06:21:38;3.50;;;3.20;;
11837;SDS011;5978;51.020;6.764;2022-10-16T06:24:04;3.87;;;3.40;;
11837;SDS011;5978;51.020;6.764;2022-10-16T06:26:30;3.50;;;3.03;;
11837;SDS011;5978;51.020;6.764;2022-10-16T06:28:56;5.60;;;3.20;;
11837;SDS011;5978;51.020;6.764;2022-10-16T06:31:23;6.40;;;3.60;;
11837;SDS011;5978;51.020;6.764;2022-10-16T06:33:52;3.07;;;2.87;;
11837;SDS011;5978;51.020;6.764;2022-10-16T06:36:19;3.70;;;3.40;;
11837;SDS011;5978;51.020;6.764;2022-10-16T06:38:46;4.50;;;3.13;;
11837;SDS011;5978;51.020;6.764;2022-10-16T06:41:12;2.90;;;2.70;;
11837;SDS011;5978;51.020;6.764;2022-10-16T06:43:39;3.30;;;2.77;;
11837;SDS011;5978;51.020;6.764;2022-10-16T06:46:06;3.67;;;2.87;;
11837;SDS011;5978;51.020;6.764;2022-10-16T06:48:34;2.53;;;2.33;;
11837;SDS011;5978;51.020;6.764;2022-10-16T06:51:01;3.30;;;3.00;;
11837;SDS011;5978;51.020;6.764;2022-10-16T06:53:29;3.90;;;3.60;;
11837;SDS011;5978;51.020;6.764;2022-10-16T06:55:57;8.00;;;3.40;;
11837;SDS011;5978;51.020;6.764;2022-10-16T06:58:22;3.60;;;2.70;;
11837;SDS011;5978;51.020;6.764;2022-10-16T07:00:48;3.90;;;3.50;;
11837;SDS011;5978;51.020;6.764;2022-10-16T07:03:19;6.33;;;3.23;;
11837;SDS011;5978;51.020;6.764;2022-10-16T07:05:45;3.60;;;3.00;;
11837;SDS011;5978;51.020;6.764;2022-10-16T07:08:10;3.20;;;3.00;;
11837;SDS011;5978;51.020;6.764;2022-10-16T07:10:36;2.93;;;2.73;;
11837;SDS011;5978;51.020;6.764;2022-10-16T07:13:02;3.33;;;2.87;;
11837;SDS011;5978;51.020;6.764;2022-10-16T07:15:28;4.33;;;3.17;;
11837;SDS011;5978;51.020;6.764;2022-10-16T07:17:53;4.73;;;3.43;;
11837;SDS011;5978;51.020;6.764;2022-10-16T07:20:20;3.83;;;3.13;;
11837;SDS011;5978;51.020;6.764;2022-10-16T07:22:46;3.70;;;3.50;;
11837;SDS011;5978;51.020;6.764;2022-10-16T07:25:11;3.27;;;3.07;;
11837;SDS011;5978;51.020;6.764;2022-10-16T07:27:37;3.27;;;2.97;;
11837;SDS011;5978;51.020;6.764;2022-10-16T07:30:03;4.27;;;3.60;;
11837;SDS011;5978;51.020;6.764;2022-10-16T07:32:29;3.80;;;3.47;;
11837;SDS011;5978;51.020;6.764;2022-10-16T07:34:56;4.00;;;3.70;;
11837;SDS011;5978;51.020;6.764;2022-10-16T07:37:21;3.90;;;3.60;;
11837;SDS011;5978;51.020;6.764;2022-10-16T07:39:47;3.67;;;3.37;;
11837;SDS011;5978;51.020;6.764;2022-10-16T07:42:13;4.50;;;4.20;;
11837;SDS011;5978;51.020;6.764;2022-10-16T07:44:38;4.40;;;4.00;;
11837;SDS011;5978;51.020;6.764;2022-10-16T07:47:05;4.30;;;3.90;;
11837;SDS011;5978;51.020;6.764;2022-10-16T07:49:31;4.40;;;4.00;;
11837;SDS011;5978;51.020;6.764;2022-10-16T07:51:56;3.30;;;3.00;;
11837;SDS011;5978;51.020;6.764;2022-10-16T07:54:22;4.90;;;3.57;;
11837;SDS011;5978;51.020;6.764;2022-10-16T07:56:47;5.43;;;3.67;;
11837;SDS011;5978;51.020;6.764;2022-10-16T07:59:13;4.77;;;3.57;;
11837;SDS011;5978;51.020;6.764;2022-10-16T08:01:39;3.13;;;2.83;;
11837;SDS011;5978;51.020;6.764;2022-10-16T08:04:06;1.87;;;1.70;;
11837;SDS011;5978;51.020;6.764;2022-10-16T08:06:34;2.00;;;1.90;;
11837;SDS011;5978;51.020;6.764;2022-10-16T08:09:02;1.73;;;1.63;;
11837;SDS011;5978;51.020;6.764;2022-10-16T08:11:27;4.33;;;1.60;;
11837;SDS011;5978;51.020;6.764;2022-10-16T08:13:53;4.90;;;2.40;;
11837;SDS011;5978;51.020;6.764;2022-10-16T08:16:18;2.47;;;1.90;;
11837;SDS011;5978;51.020;6.764;2022-10-16T08:18:44;3.53;;;1.67;;
11837;SDS011;5978;51.020;6.764;2022-10-16T08:21:14;1.50;;;1.30;;
11837;SDS011;5978;51.020;6.764;2022-10-16T08:23:41;4.50;;;2.00;;
11837;SDS011;5978;51.020;6.764;2022-10-16T08:26:07;10.00;;;2.27;;
11837;SDS011;5978;51.020;6.764;2022-10-16T08:28:34;2.33;;;1.50;;
11837;SDS011;5978;51.020;6.764;2022-10-16T08:31:07;5.10;;;1.47;;
11837;SDS011;5978;51.020;6.764;2022-10-16T08:33:40;1.80;;;1.60;;
11837;SDS011;5978;51.020;6.764;2022-10-16T08:36:09;2.17;;;1.20;;
11837;SDS011;5978;51.020;6.764;2022-10-16T08:38:35;3.10;;;1.60;;
11837;SDS011;5978;51.020;6.764;2022-10-16T08:41:09;1.30;;;1.20;;
11837;SDS011;5978;51.020;6.764;2022-10-16T08:44:16;1.63;;;1.40;;
11837;SDS011;5978;51.020;6.764;2022-10-16T08:47:16;1.50;;;1.40;;
11837;SDS011;5978;51.020;6.764;2022-10-16T08:49:43;1.43;;;1.20;;
11837;SDS011;5978;51.020;6.764;2022-10-16T08:52:21;1.97;;;1.37;;
11837;SDS011;5978;51.020;6.764;2022-10-16T08:54:48;1.97;;;1.30;;
11837;SDS011;5978;51.020;6.764;2022-10-16T08:57:19;2.87;;;1.00;;
11837;SDS011;5978;51.020;6.764;2022-10-16T08:59:46;2.17;;;1.33;;
11837;SDS011;5978;51.020;6.764;2022-10-16T09:02:22;1.47;;;0.90;;
11837;SDS011;5978;51.020;6.764;2022-10-16T09:10:52;1.40;;;1.30;;
11837;SDS011;5978;51.020;6.764;2022-10-16T09:13:46;2.50;;;1.20;;
11837;SDS011;5978;51.020;6.764;2022-10-16T09:16:34;2.43;;;1.50;;
11837;SDS011;5978;51.020;6.764;2022-10-16T09:21:53;2.70;;;1.63;;
11837;SDS011;5978;51.020;6.764;2022-10-16T09:24:22;5.30;;;1.10;;
11837;SDS011;5978;51.020;6.764;2022-10-16T09:26:50;1.37;;;1.00;;
11837;SDS011;5978;51.020;6.764;2022-10-16T09:29:16;7.63;;;1.20;;
11837;SDS011;5978;51.020;6.764;2022-10-16T09:31:46;1.40;;;1.03;;
11837;SDS011;5978;51.020;6.764;2022-10-16T09:34:32;1.13;;;0.87;;
11837;SDS011;5978;51.020;6.764;2022-10-16T09:37:01;2.70;;;1.00;;
11837;SDS011;5978;51.020;6.764;2022-10-16T09:39:43;1.93;;;0.93;;
11837;SDS011;5978;51.020;6.764;2022-10-16T09:42:32;1.50;;;1.10;;
11837;SDS011;5978;51.020;6.764;2022-10-16T09:45:02;2.13;;;1.07;;
11837;SDS011;5978;51.020;6.764;2022-10-16T09:47:45;1.67;;;1.33;;
11837;SDS011;5978;51.020;6.764;2022-10-16T09:53:02;1.97;;;1.00;;
11837;SDS011;5978;51.020;6.764;2022-10-16T09:55:35;1.63;;;1.13;;
11837;SDS011;5978;51.020;6.764;2022-10-16T09:58:01;2.23;;;0.80;;
11837;SDS011;5978;51.020;6.764;2022-10-16T10:00:27;2.30;;;1.30;;
11837;SDS011;5978;51.020;6.764;2022-10-16T10:02:53;1.73;;;1.00;;
11837;SDS011;5978;51.020;6.764;2022-10-16T10:05:21;4.60;;;1.03;;
11837;SDS011;5978;51.020;6.764;2022-10-16T10:07:52;2.53;;;0.80;;
11837;SDS011;5978;51.020;6.764;2022-10-16T10:10:24;1.77;;;0.90;;
11837;SDS011;5978;51.020;6.764;2022-10-16T10:12:54;2.70;;;1.10;;
11837;SDS011;5978;51.020;6.764;2022-10-16T10:15:20;3.90;;;1.10;;
11837;SDS011;5978;51.020;6.764;2022-10-16T10:17:55;1.60;;;1.43;;
11837;SDS011;5978;51.020;6.764;2022-10-16T10:20:29;1.97;;;0.90;;
11837;SDS011;5978;51.020;6.764;2022-10-16T10:23:00;1.97;;;0.90;;
11837;SDS011;5978;51.020;6.764;2022-10-16T10:31:02;3.33;;;1.07;;
11837;SDS011;5978;51.020;6.764;2022-10-16T10:33:46;1.23;;;1.00;;
11837;SDS011;5978;51.020;6.764;2022-10-16T10:36:34;3.20;;;0.90;;
11837;SDS011;5978;51.020;6.764;2022-10-16T10:39:12;1.80;;;1.23;;
11837;SDS011;5978;51.020;6.764;2022-10-16T10:47:39;5.13;;;1.27;;
11837;SDS011;5978;51.020;6.764;2022-10-16T10:50:24;3.00;;;1.10;;
11837;SDS011;5978;51.020;6.764;2022-10-16T11:02:41;1.20;;;0.90;;
11837;SDS011;5978;51.020;6.764;2022-10-16T11:07:49;8.00;;;1.43;;
11837;SDS011;5978;51.020;6.764;2022-10-16T11:10:23;2.67;;;1.30;;
11837;SDS011;5978;51.020;6.764;2022-10-16T11:12:58;6.77;;;1.27;;
11837;SDS011;5978;51.020;6.764;2022-10-16T11:15:45;3.47;;;1.07;;
11837;SDS011;5978;51.020;6.764;2022-10-16T11:18:19;1.60;;;0.90;;
11837;SDS011;5978;51.020;6.764;2022-10-16T11:21:21;2.30;;;0.83;;
11837;SDS011;5978;51.020;6.764;2022-10-16T11:23:47;5.03;;;1.17;;
11837;SDS011;5978;51.020;6.764;2022-10-16T11:26:20;4.30;;;0.90;;
11837;SDS011;5978;51.020;6.764;2022-10-16T11:28:50;1.33;;;1.00;;
11837;SDS011;5978;51.020;6.764;2022-10-16T11:31:22;2.33;;;0.90;;
11837;SDS011;5978;51.020;6.764;2022-10-16T11:37:38;1.00;;;0.80;;
11837;SDS011;5978;51.020;6.764;2022-10-16T11:39:49;1.10;;;0.80;;
11837;SDS011;5978;51.020;6.764;2022-10-16T11:42:35;2.00;;;1.00;;
11837;SDS011;5978;51.020;6.764;2022-10-16T11:48:22;2.23;;;1.10;;
11837;SDS011;5978;51.020;6.764;2022-10-16T11:57:02;2.83;;;0.80;;
11837;SDS011;5978;51.020;6.764;2022-10-16T11:59:43;4.00;;;1.00;;
11837;SDS011;5978;51.020;6.764;2022-10-16T12:05:03;3.10;;;0.83;;
11837;SDS011;5978;51.020;6.764;2022-10-16T12:08:28;3.00;;;1.00;;
11837;SDS011;5978;51.020;6.764;2022-10-16T12:10:37;1.50;;;1.20;;
11837;SDS011;5978;51.020;6.764;2022-10-16T12:13:27;1.63;;;0.97;;
11837;SDS011;5978;51.020;6.764;2022-10-16T12:16:39;4.83;;;1.00;;
11837;SDS011;5978;51.020;6.764;2022-10-16T12:18:40;1.30;;;0.90;;
11837;SDS011;5978;51.020;6.764;2022-10-16T12:21:07;4.87;;;1.10;;
11837;SDS011;5978;51.020;6.764;2022-10-16T12:23:38;1.73;;;0.90;;
11837;SDS011;5978;51.020;6.764;2022-10-16T12:26:12;1.57;;;1.30;;
11837;SDS011;5978;51.020;6.764;2022-10-16T12:28:38;2.03;;;0.73;;
11837;SDS011;5978;51.020;6.764;2022-10-16T12:31:06;3.43;;;0.93;;
11837;SDS011;5978;51.020;6.764;2022-10-16T12:33:35;2.20;;;0.70;;
11837;SDS011;5978;51.020;6.764;2022-10-16T12:36:06;0.90;;;0.70;;
11837;SDS011;5978;51.020;6.764;2022-10-16T12:38:38;1.30;;;0.70;;
11837;SDS011;5978;51.020;6.764;2022-10-16T12:41:23;1.43;;;0.67;;
11837;SDS011;5978;51.020;6.764;2022-10-16T12:43:57;5.10;;;0.80;;
11837;SDS011;5978;51.020;6.764;2022-10-16T12:51:38;3.40;;;1.10;;
11837;SDS011;5978;51.020;6.764;2022-10-16T12:54:10;2.00;;;0.67;;
11837;SDS011;5978;51.020;6.764;2022-10-16T12:59:42;1.40;;;0.83;;
11837;SDS011;5978;51.020;6.764;2022-10-16T13:10:37;1.80;;;0.70;;
11837;SDS011;5978;51.020;6.764;2022-10-16T13:18:59;1.73;;;0.70;;
11837;SDS011;5978;51.020;6.764;2022-10-16T13:30:16;3.43;;;0.80;;
11837;SDS011;5978;51.020;6.764;2022-10-16T13:32:47;2.07;;;0.80;;
11837;SDS011;5978;51.020;6.764;2022-10-16T13:35:27;1.53;;;0.77;;
11837;SDS011;5978;51.020;6.764;2022-10-16T13:38:14;1.40;;;0.80;;
11837;SDS011;5978;51.020;6.764;2022-10-16T13:40:49;1.90;;;0.87;;
11837;SDS011;5978;51.020;6.764;2022-10-16T13:43:27;1.50;;;0.80;;
11837;SDS011;5978;51.020;6.764;2022-10-16T13:46:02;1.30;;;0.70;;
11837;SDS011;5978;51.020;6.764;2022-10-16T13:48:31;1.73;;;0.63;;
11837;SDS011;5978;51.020;6.764;2022-10-16T13:51:32;1.83;;;0.83;;
11837;SDS011;5978;51.020;6.764;2022-10-16T13:53:51;2.27;;;0.70;;
11837;SDS011;5978;51.020;6.764;2022-10-16T13:56:18;2.50;;;0.63;;
11837;SDS011;5978;51.020;6.764;2022-10-16T13:59:02;2.50;;;0.70;;
11837;SDS011;5978;51.020;6.764;2022-10-16T14:01:48;2.13;;;0.63;;
11837;SDS011;5978;51.020;6.764;2022-10-16T14:04:16;3.50;;;0.60;;
11837;SDS011;5978;51.020;6.764;2022-10-16T14:06:43;3.43;;;1.33;;
11837;SDS011;5978;51.020;6.764;2022-10-16T14:14:43;3.53;;;1.00;;
11837;SDS011;5978;51.020;6.764;2022-10-16T14:17:14;1.87;;;0.60;;
11837;SDS011;5978;51.020;6.764;2022-10-16T14:19:46;2.60;;;1.20;;
11837;SDS011;5978;51.020;6.764;2022-10-16T14:22:33;1.57;;;0.90;;
11837;SDS011;5978;51.020;6.764;2022-10-16T14:25:26;3.30;;;1.20;;
11837;SDS011;5978;51.020;6.764;2022-10-16T14:30:57;1.93;;;0.80;;
11837;SDS011;5978;51.020;6.764;2022-10-16T14:33:30;0.90;;;0.70;;
11837;SDS011;5978;51.020;6.764;2022-10-16T14:38:34;1.73;;;1.00;;
11837;SDS011;5978;51.020;6.764;2022-10-16T14:41:01;2.50;;;0.90;;
11837;SDS011;5978;51.020;6.764;2022-10-16T14:43:33;2.47;;;0.80;;
11837;SDS011;5978;51.020;6.764;2022-10-16T14:46:06;1.60;;;0.90;;
11837;SDS011;5978;51.020;6.764;2022-10-16T14:48:47;1.43;;;0.90;;
11837;SDS011;5978;51.020;6.764;2022-10-16T14:51:19;1.63;;;0.80;;
11837;SDS011;5978;51.020;6.764;2022-10-16T14:53:45;6.50;;;1.00;;
11837;SDS011;5978;51.020;6.764;2022-10-16T14:56:18;5.77;;;0.97;;
11837;SDS011;5978;51.020;6.764;2022-10-16T14:58:49;3.40;;;1.00;;
11837;SDS011;5978;51.020;6.764;2022-10-16T15:01:16;4.03;;;1.07;;
11837;SDS011;5978;51.020;6.764;2022-10-16T15:03:42;2.27;;;0.87;;
11837;SDS011;5978;51.020;6.764;2022-10-16T15:06:09;1.00;;;0.90;;
11837;SDS011;5978;51.020;6.764;2022-10-16T15:08:37;4.60;;;0.90;;
11837;SDS011;5978;51.020;6.764;2022-10-16T15:11:04;1.50;;;1.23;;
11837;SDS011;5978;51.020;6.764;2022-10-16T15:13:36;2.03;;;1.20;;
11837;SDS011;5978;51.020;6.764;2022-10-16T15:16:02;1.33;;;1.10;;
11837;SDS011;5978;51.020;6.764;2022-10-16T15:18:28;2.40;;;1.20;;
11837;SDS011;5978;51.020;6.764;2022-10-16T15:20:53;4.70;;;0.90;;
11837;SDS011;5978;51.020;6.764;2022-10-16T15:23:20;1.97;;;0.90;;
11837;SDS011;5978;51.020;6.764;2022-10-16T15:25:48;2.30;;;1.00;;
11837;SDS011;5978;51.020;6.764;2022-10-16T15:28:15;2.80;;;1.00;;
11837;SDS011;5978;51.020;6.764;2022-10-16T15:30:53;2.53;;;1.00;;
11837;SDS011;5978;51.020;6.764;2022-10-16T15:33:22;2.10;;;1.20;;
11837;SDS011;5978;51.020;6.764;2022-10-16T15:35:53;3.63;;;2.40;;
11837;SDS011;5978;51.020;6.764;2022-10-16T15:38:20;10.63;;;5.00;;
11837;SDS011;5978;51.020;6.764;2022-10-16T15:40:47;5.90;;;3.10;;
11837;SDS011;5978;51.020;6.764;2022-10-16T15:43:14;4.30;;;1.77;;
11837;SDS011;5978;51.020;6.764;2022-10-16T15:45:39;6.30;;;2.50;;
11837;SDS011;5978;51.020;6.764;2022-10-16T15:48:05;2.60;;;2.40;;
11837;SDS011;5978;51.020;6.764;2022-10-16T15:50:31;3.70;;;1.97;;
11837;SDS011;5978;51.020;6.764;2022-10-16T15:52:57;3.20;;;1.33;;
11837;SDS011;5978;51.020;6.764;2022-10-16T15:55:23;3.03;;;1.27;;
11837;SDS011;5978;51.020;6.764;2022-10-16T15:57:49;2.10;;;0.93;;
11837;SDS011;5978;51.020;6.764;2022-10-16T16:00:16;3.67;;;1.10;;
11837;SDS011;5978;51.020;6.764;2022-10-16T16:02:43;2.37;;;0.93;;
11837;SDS011;5978;51.020;6.764;2022-10-16T16:05:14;3.10;;;0.97;;
11837;SDS011;5978;51.020;6.764;2022-10-16T16:07:40;6.30;;;1.20;;
11837;SDS011;5978;51.020;6.764;2022-10-16T16:10:07;2.30;;;1.00;;
11837;SDS011;5978;51.020;6.764;2022-10-16T16:12:34;2.70;;;1.40;;
11837;SDS011;5978;51.020;6.764;2022-10-16T16:15:01;2.30;;;1.43;;
11837;SDS011;5978;51.020;6.764;2022-10-16T16:17:28;2.80;;;1.27;;
11837;SDS011;5978;51.020;6.764;2022-10-16T16:19:55;2.00;;;1.20;;
11837;SDS011;5978;51.020;6.764;2022-10-16T16:22:21;1.17;;;1.00;;
11837;SDS011;5978;51.020;6.764;2022-10-16T16:24:47;2.23;;;1.27;;
11837;SDS011;5978;51.020;6.764;2022-10-16T16:27:12;2.80;;;1.17;;
11837;SDS011;5978;51.020;6.764;2022-10-16T16:29:38;2.33;;;1.53;;
11837;SDS011;5978;51.020;6.764;2022-10-16T16:32:04;1.30;;;1.10;;
11837;SDS011;5978;51.020;6.764;2022-10-16T16:34:30;1.83;;;1.20;;
11837;SDS011;5978;51.020;6.764;2022-10-16T16:36:59;2.23;;;1.50;;
11837;SDS011;5978;51.020;6.764;2022-10-16T16:39:25;1.97;;;1.10;;
11837;SDS011;5978;51.020;6.764;2022-10-16T16:41:51;1.40;;;1.27;;
11837;SDS011;5978;51.020;6.764;2022-10-16T16:44:23;5.00;;;1.47;;
11837;SDS011;5978;51.020;6.764;2022-10-16T16:46:53;4.20;;;1.23;;
11837;SDS011;5978;51.020;6.764;2022-10-16T16:49:19;2.00;;;1.73;;
11837;SDS011;5978;51.020;6.764;2022-10-16T16:51:45;1.73;;;1.63;;
11837;SDS011;5978;51.020;6.764;2022-10-16T16:54:11;1.27;;;1.17;;
11837;SDS011;5978;51.020;6.764;2022-10-16T16:56:38;11.13;;;1.70;;
11837;SDS011;5978;51.020;6.764;2022-10-16T16:59:04;1.70;;;1.60;;
11837;SDS011;5978;51.020;6.764;2022-10-16T17:01:30;1.77;;;1.10;;
11837;SDS011;5978;51.020;6.764;2022-10-16T17:03:56;1.53;;;1.30;;
11837;SDS011;5978;51.020;6.764;2022-10-16T17:06:25;1.23;;;1.10;;
11837;SDS011;5978;51.020;6.764;2022-10-16T17:08:52;2.60;;;1.30;;
11837;SDS011;5978;51.020;6.764;2022-10-16T17:11:21;1.33;;;1.23;;